Observations for MIDDLE WALLOP, United Kingdom (EGVP)

EGVP 112150Z AUTO 10006KT 9999 // OVC150/// 07/05 Q1021 
EGVP 112050Z AUTO 12006KT 9999 // SCT028/// SCT140/// BKN170/// 07/06 Q1021 
EGVP 111950Z 12007KT 9999 FEW018 SCT030 OVC170 07/06 Q1021 BLU NOSIG
EGVP 111850Z 13006KT 9999 SCT018 BKN030 08/05 Q1021 WHT TEMPO FEW018 BLU
EGVP 111750Z 12008KT 9999 SCT017 BKN030 08/05 Q1021 WHT TEMPO FEW017 BLU
EGVP 111724Z 12007KT 9999 FEW016 BKN030 08/05 Q1021 BLU TEMPO SCT016 WHT
EGVP 111650Z 12008KT 9999 -RA SCT015 OVC025 08/06 Q1022 WHT TEMPO FEW015 BKN025 BLU 
EGVP 111550Z 13006KT 9999 FEW014 SCT016 OVC025 08/06 Q1022 WHT TEMPO 6000 -DZ WHT   
EGVP 111450Z 13007KT 9999 -DZ BKN016 09/06 Q1022 WHT TEMPO FEW016 BKN030 BLU
EGVP 111350Z 13006KT 9999 FEW012 BKN028 09/06 Q1023 BLU NOSIG   
EGVP 111250Z 14005KT 9999 FEW012 09/06 Q1023 BLU NOSIG  
EGVP 111150Z 18002KT 9999 FEW030 08/06 Q1024 BLU NOSIG  
EGVP 111050Z 12002KT 9999 FEW030 SCT250 06/04 Q1024 BLU NOSIG   
EGVP 110950Z 02001KT 9999 6000S FU FEW030 04/04 Q1025 WHT BECMG 9999 NSW BLU
EGVP 110850Z 32001KT 6000 BR BKN030 03/03 Q1025 WHT BECMG 9999 NSW BLU  
EGVP 110817Z 07002KT 6000 BR FEW002 BKN030 03/03 Q1025 WHT NOSIG
EGVP 110750Z 31001KT 3800 BR FEW002 BKN030 02/02 Q1025 GRN BECMG 5000 WHT   
EGVP 110650Z 09001KT 3000 BR BKN030 02/02 Q1025 YLO1
EGVP 110550Z 36001KT 0350 FG FEW001 BKN033 01/01 Q1025 RED  
EGVP 110450Z AUTO 02002KT 0200 // FEW001/// BKN009/// BKN034/// 02/02 Q1025 
EGVP 110350Z AUTO 09002KT 5000 // SCT010/// 03/02 Q1025 
EGVP 110250Z AUTO 16002KT 0150 // BKN009/// BKN050/// 02/02 Q1026   
EGVP 110150Z AUTO 25002KT 0300 // BKN050/// 01/01 Q1026 
EGVP 110050Z AUTO 06001KT 2100 // NCD 02/01 Q1027   
EGVP 102350Z AUTO 03002KT 9999 // NCD 05/04 Q1027   
EGVP 102250Z AUTO 35002KT 9999 // BKN070/// 05/05 Q1027 
EGVP 102150Z AUTO 11002KT 9999 // BKN080/// 05/03 Q1028